Ewen, MI

7:59 PM EST on November 24, 2014 (GMT -0500)
Lakeland-Lee Memorial | Change Station
CLOSE
Current Station
Airport
Location: Arbor Vitae,
Elevation: 1627 ft
Nearby Weather Stations

Elev 1627 ft 45.93 °N, 89.73 °W | Updated 24 minutes ago

Snow
Snow
23 °F
Feels Like 8 °F
N
20
Wind Variable Wind from NNW
Gusts 32 mph

Today
High -- | Low -- °F
--% Chance of Precip.
Yesterday
High -- | Low -- °F
Precip. -- in
8:12 AM 5:16 PM
Waxing Crescent, 8% visible
Pressure 29.46 in
Visibility 1.2 miles
Clouds
Windchill 8 °F
Dew Point 20 °F
Humidity 87%
Rainfall 0.17 in
Snow Depth Not available.
UV Not available.
Pollen .10 out of 12
Air Quality Not available.
Flu Activity Not available.
METAR KARV 250035Z AUTO 34017G28KT 1 1/4SM -SN VV007 M05/M07 A2946 RMK AO2 T10501068

More Conditions Fewer Conditions

Pressure 29.46 in
Visibility 1.2 miles
Clouds
Windchill 8 °F
Dew Point 20 °F
Humidity 87%
Rainfall 0.17 in
Snow Depth Not available.
UV Not available.
Pollen .10 out of 12
Air Quality Not available.
Flu Activity Not available.
METAR KARV 250035Z AUTO 34017G28KT 1 1/4SM -SN VV007 M05/M07 A2946 RMK AO2 T10501068

More Conditions Fewer Conditions

10-Day Weather Forecast

Almanac

Astronomy

Nov. 24, 2014 Rise Set
Actual Time
Civil Twilight
Nautical Twilight
Astronomical Twilight
Moon
Length of Visible Light
Length of Day
Tomorrow will be .
, % of the Moon is Illuminated

Today's Extremes

State Highs State Lows

Community

WunderPhotos

Upload Photos

1,773,442 photos uploaded!

WunderBlogs® & News

Nearby

Air Quality

  Air Quality AQ Index Pollutant
Not available.

Snow Depth

Station Depth Elevation

Earthquake Activity

City Distance Mag. Time & Date
Minimum magnitude displayed is 2.5.

Coastal Water Temperatures

Place Temperature

Nearby Weather Stations